Eships Dana — ZDJT6 — position and weather

sailwx.info

Track history (hours):
 
Tides and Currents Weather Stations Pressure Air Temp Water Temp Dewpoint Dewpoint Depression Visibility Wind Speed Wind Dir Waves Ship Positions

Eships Dana

Last reported at 2015-Feb-01 23:33 UTC. Time now 2015-Feb-02 00:18 UTC.
Position N 53°39' W 000°12'.

Length 116 m; draft 7.1 m.

Type: Tanker. MMSI: 236566000.

Date/timePositionNaut miles runAvg speedWind from/ knotsBaromVisibWave heightAir tempDewpointWater temp
2015-Feb-01 23:33N 53°39' W 000°12'0 0.0
2015-Feb-01 22:33N 53°39' W 000°12'0 0.0
2015-Feb-01 21:33N 53°39' W 000°12'0 0.0
2015-Feb-01 20:33N 53°39' W 000°12'0 0.0
2015-Feb-01 19:33N 53°39' W 000°12'0 0.0
2015-Feb-01 18:33N 53°39' W 000°12'0 0.0
2015-Feb-01 17:33N 53°39' W 000°12'0 0.0
2015-Feb-01 16:30N 53°39' W 000°12'0 0.0
2015-Feb-01 15:33N 53°39' W 000°12'0 0.0
2015-Feb-01 14:33N 53°39' W 000°12'0 0.0
2015-Feb-01 13:33N 53°39' W 000°12'0 0.0
2015-Feb-01 12:33N 53°39' W 000°12'0 0.0
2015-Feb-01 11:33N 53°39' W 000°12'0 0.0
2015-Feb-01 10:33N 53°39' W 000°12'0 0.0
2015-Feb-01 09:33N 53°39' W 000°12'0 0.0
2015-Feb-01 08:30N 53°39' W 000°12'0 0.0
2015-Feb-01 07:28N 53°39' W 000°12'0 0.0
2015-Feb-01 06:33N 53°39' W 000°12'0 0.0
2015-Feb-01 05:33N 53°39' W 000°12'0 0.0
2015-Feb-01 04:33N 53°39' W 000°12'0 0.0
2015-Feb-01 03:33N 53°39' W 000°12'0 0.0
2015-Feb-01 02:30N 53°39' W 000°12'0 0.0
2015-Feb-01 01:33N 53°39' W 000°12'0 0.0
2015-Feb-01 00:33N 53°39' W 000°12'0 0.0
2015-Jan-31 23:33N 53°39' W 000°12'0 0.0
2015-Jan-31 22:33N 53°39' W 000°12'0 0.0
2015-Jan-31 21:33N 53°39' W 000°12'0 0.0
2015-Jan-31 20:33N 53°39' W 000°12'0 0.0
2015-Jan-31 19:33N 53°39' W 000°12'0 0.0
2015-Jan-31 18:33N 53°39' W 000°12'0 0.3
2015-Jan-31 17:33N 53°39' W 000°12'1 1.0
2015-Jan-31 16:33N 53°38' W 000°11'7 7.4
2015-Jan-31 15:33N 53°35' E 000°01'1110.5
2015-Jan-31 14:33N 53°33' E 000°18'5 4.6
2015-Jan-31 13:31N 53°36' E 000°25'0 0.1
2015-Jan-31 12:31N 53°36' E 000°25'0 0.2
2015-Jan-31 11:31N 53°36' E 000°25'0 0.1
2015-Jan-31 10:31N 53°36' E 000°25'0 0.1
2015-Jan-31 09:31N 53°36' E 000°25'0 0.1
2015-Jan-31 08:31N 53°36' E 000°25'1 1.4
2015-Jan-31 07:33N 53°37' E 000°27'1413.0
2015-Jan-31 06:30N 53°35' E 000°50'5012.4
2015-Jan-31 02:29N 53°16' E 002°06'10012.6
2015-Jan-30 18:33N 51°37' E 002°25'1312.6
2015-Jan-30 17:34N 51°27' E 002°13'1312.6
2015-Jan-30 16:33N 51°15' E 002°05'1212.4
2015-Jan-30 15:34N 51°08' E 001°49'1312.6
2015-Jan-30 14:34N 50°60' E 001°34'1312.9
2015-Jan-30 13:33N 50°48' E 001°25'8810.9
2015-Jan-30 05:30N 49°43' W 000°08'1111.2
2015-Jan-30 04:33N 49°32' W 000°05'10 9.8
2015-Jan-30 03:34N 49°28' E 000°08'3 2.2
2015-Jan-30 02:23N 49°29' E 000°12'0 0.0
2015-Jan-30 01:26N 49°29' E 000°12'0 0.0
2015-Jan-30 00:29N 49°29' E 000°12'0 0.0
2015-Jan-29 23:32N 49°29' E 000°12'0 0.0
2015-Jan-29 22:29N 49°29' E 000°12'0 0.0
2015-Jan-29 21:32N 49°29' E 000°12'0 0.0
2015-Jan-29 20:29N 49°29' E 000°12'0 0.0
2015-Jan-29 19:29N 49°29' E 000°12'0 0.0
2015-Jan-29 18:29N 49°29' E 000°12'0 0.0
2015-Jan-29 17:29N 49°29' E 000°12'0 0.0
2015-Jan-29 16:29N 49°29' E 000°12'0 0.0
2015-Jan-29 15:32N 49°29' E 000°12'0 0.0
2015-Jan-29 14:32N 49°29' E 000°12'0 0.0
2015-Jan-29 13:29N 49°29' E 000°12'0 0.0
2015-Jan-29 12:29N 49°29' E 000°12'0 0.0
2015-Jan-29 11:29N 49°29' E 000°12'0 0.0
2015-Jan-29 10:29N 49°29' E 000°12'0 0.0
2015-Jan-29 09:26N 49°29' E 000°12'0 0.0
2015-Jan-29 08:29N 49°29' E 000°12'0 0.0
2015-Jan-29 07:32N 49°29' E 000°12'0 0.4
2015-Jan-29 06:34N 49°29' E 000°12'2 1.9
2015-Jan-29 05:34N 49°28' E 000°09'9 8.6
2015-Jan-29 04:34N 49°30' W 000°04'3 3.5
2015-Jan-29 03:33N 49°33' W 000°07'0 0.0
2015-Jan-29 02:33N 49°33' W 000°07'0 0.0
2015-Jan-29 01:33N 49°33' W 000°07'0 0.0
2015-Jan-29 00:33N 49°33' W 000°07'0 0.0
2015-Jan-28 23:33N 49°33' W 000°07'0 0.0
2015-Jan-28 22:33N 49°33' W 000°07'0 0.0
2015-Jan-28 21:33N 49°33' W 000°07'0 0.0
2015-Jan-28 20:33N 49°33' W 000°07'0 0.0
2015-Jan-28 19:33N 49°33' W 000°07'0 0.0
2015-Jan-28 18:33N 49°33' W 000°07'0 0.0
2015-Jan-28 17:33N 49°33' W 000°07'0 0.0
2015-Jan-28 16:33N 49°33' W 000°07'1 1.4
2015-Jan-28 15:33N 49°35' W 000°07'1211.9
2015-Jan-28 14:33N 49°46' W 000°11'46 8.9
2015-Jan-28 09:24N 50°31' E 000°07'1012.3
2015-Jan-28 08:33N 50°35' E 000°23'1212.5
2015-Jan-28 07:33N 50°41' E 000°40'1212.4
2015-Jan-28 06:33N 50°48' E 000°56'1312.1
2015-Jan-28 05:28N 50°56' E 001°12'1011.4
2015-Jan-28 04:33N 51°03' E 001°25'1312.9
2015-Jan-28 03:34N 51°11' E 001°40'1514.6
2015-Jan-28 02:33N 51°22' E 001°55'1212.4
2015-Jan-28 01:34N 51°21' E 002°15'1514.1
2015-Jan-28 00:31N 51°22' E 002°39'1313.1
2015-Jan-27 23:33N 51°23' E 002°59'1414.4
2015-Jan-27 22:33N 51°25' E 003°22'1313.4
2015-Jan-27 21:33N 51°28' E 003°42'0 0.4
2015-Jan-27 20:30N 51°28' E 003°43'0 0.0
2015-Jan-27 19:30N 51°28' E 003°43'0 0.0
2015-Jan-27 18:33N 51°28' E 003°43'0 0.0
2015-Jan-27 17:30N 51°28' E 003°43'0 0.0
2015-Jan-27 16:30N 51°28' E 003°43'0 0.0
2015-Jan-27 15:30N 51°28' E 003°43'0 0.0
2015-Jan-27 14:30N 51°28' E 003°43'0 0.0
2015-Jan-27 13:24N 51°28' E 003°43'0 0.0
2015-Jan-27 12:30N 51°28' E 003°43'0 0.0
2015-Jan-27 11:30N 51°28' E 003°43'0 0.0
2015-Jan-27 10:30N 51°28' E 003°43'0 0.0
2015-Jan-27 09:24N 51°28' E 003°43'0 0.0
2015-Jan-27 08:30N 51°28' E 003°43'0 0.0
2015-Jan-27 07:33N 51°28' E 003°43'0 0.0
2015-Jan-27 06:30N 51°28' E 003°43'0 0.0
2015-Jan-27 05:33N 51°28' E 003°43'0 0.0
2015-Jan-27 04:33N 51°28' E 003°43'0 0.0
2015-Jan-27 03:33N 51°28' E 003°43'0 0.0
2015-Jan-27 02:30N 51°28' E 003°43'0 0.0
2015-Jan-27 01:30N 51°28' E 003°43'0 0.0
2015-Jan-27 00:30N 51°28' E 003°43'0 0.0
2015-Jan-26 23:33N 51°28' E 003°43'0 0.0
2015-Jan-26 22:30N 51°28' E 003°43'0 0.0
2015-Jan-26 21:33N 51°28' E 003°43'0 0.0
2015-Jan-26 20:33N 51°28' E 003°43'1 1.4
2015-Jan-26 19:34N 51°27' E 003°41'1211.9
2015-Jan-26 18:33N 51°24' E 003°22'1413.8
2015-Jan-26 17:33N 51°25' E 003°00'1212.3
2015-Jan-26 16:33N 51°21' E 002°41'4 3.8
2015-Jan-26 15:31N 51°20' E 002°35'0 0.1
2015-Jan-26 14:31N 51°20' E 002°35'0 0.1
2015-Jan-26 13:28N 51°20' E 002°35'0 0.0
2015-Jan-26 12:25N 51°20' E 002°35'0 0.1
2015-Jan-26 11:28N 51°20' E 002°35'0 0.2
2015-Jan-26 10:28N 51°20' E 002°35'0 0.0
2015-Jan-26 09:31N 51°20' E 002°35'0 0.0
2015-Jan-26 08:31N 51°20' E 002°35'0 0.0
2015-Jan-26 07:16N 51°20' E 002°35'0 0.0
2015-Jan-26 06:28N 51°20' E 002°35'0 0.0
2015-Jan-26 05:31N 51°20' E 002°35'0 0.0
2015-Jan-26 04:31N 51°20' E 002°35'0 0.0
2015-Jan-26 03:31N 51°20' E 002°35'0 0.0
2015-Jan-26 02:31N 51°20' E 002°35'0 0.2
2015-Jan-26 01:33N 51°20' E 002°35'9 9.6
2015-Jan-26 00:33N 51°22' E 002°50'1514.5
2015-Jan-25 23:32N 51°25' E 003°14'1414.0
2015-Jan-25 22:33N 51°26' E 003°35'1212.0
2015-Jan-25 21:33N 51°21' E 003°53'1010.2
2015-Jan-25 20:33N 51°23' E 004°09'9 8.7
2015-Jan-25 19:33N 51°17' E 004°19'2 2.4
2015-Jan-25 18:33N 51°16' E 004°16'0 0.4
2015-Jan-25 17:31N 51°16' E 004°15'0 0.0
2015-Jan-25 16:31N 51°16' E 004°15'0 0.0
2015-Jan-25 15:31N 51°16' E 004°15'0 0.0
2015-Jan-25 14:31N 51°16' E 004°15'0 0.0
2015-Jan-25 13:31N 51°16' E 004°15'0 0.0
2015-Jan-25 12:31N 51°16' E 004°15'0 0.0
2015-Jan-25 11:31N 51°16' E 004°15'0 0.0
2015-Jan-25 10:31N 51°16' E 004°15'0 0.0
2015-Jan-25 09:31N 51°16' E 004°15'0 0.0
2015-Jan-25 08:31N 51°16' E 004°15'0 0.0
2015-Jan-25 07:31N 51°16' E 004°15'0 0.0
2015-Jan-25 06:31N 51°16' E 004°15'0 0.0
2015-Jan-25 05:31N 51°16' E 004°15'0 0.0
2015-Jan-25 04:31N 51°16' E 004°15'0 0.0
2015-Jan-25 03:31N 51°16' E 004°15'0 0.0
2015-Jan-25 02:28N 51°16' E 004°15'0 0.0
2015-Jan-25 01:31N 51°16' E 004°15'0 0.0
2015-Jan-25 00:31N 51°16' E 004°15'0 0.0
2015-Jan-24 23:31N 51°16' E 004°15'0 0.0
2015-Jan-24 22:31N 51°16' E 004°15'0 0.0
2015-Jan-24 21:31N 51°16' E 004°15'1 1.0
2015-Jan-24 20:34N 51°16' E 004°17'0 0.1
2015-Jan-24 19:33N 51°16' E 004°17'5 5.5
2015-Jan-24 18:34N 51°21' E 004°15'9 8.7
2015-Jan-24 17:33N 51°25' E 004°02'1010.2
2015-Jan-24 16:33N 51°21' E 003°47'9 8.7
2015-Jan-24 15:33N 51°25' E 003°34'8 8.5
2015-Jan-24 14:33N 51°24' E 003°20'9 8.6
2015-Jan-24 13:33N 51°24' E 003°07'8 8.5
2015-Jan-24 12:33N 51°22' E 002°54'8 8.4
2015-Jan-24 11:33N 51°23' E 002°40'1 1.4
2015-Jan-24 10:33N 51°24' E 002°39'0 0.0
2015-Jan-24 09:30N 51°24' E 002°39'0 0.1
2015-Jan-24 08:33N 51°24' E 002°39'0 0.1
2015-Jan-24 07:30N 51°24' E 002°39'0 0.0
2015-Jan-24 06:33N 51°24' E 002°39'0 0.1
2015-Jan-24 05:33N 51°24' E 002°39'0 0.1
2015-Jan-24 04:33N 51°24' E 002°39'0 0.0
2015-Jan-24 03:33N 51°24' E 002°39'0 0.0
2015-Jan-24 02:30N 51°24' E 002°39'0 0.0
2015-Jan-24 01:30N 51°24' E 002°39'0 0.0
2015-Jan-24 00:33N 51°24' E 002°39'0 0.1
2015-Jan-23 23:22N 51°24' E 002°39'0 0.1
2015-Jan-23 22:33N 51°24' E 002°39'0 0.0
2015-Jan-23 21:33N 51°24' E 002°39'0 0.1
2015-Jan-23 20:33N 51°24' E 002°39'0 0.0
2015-Jan-23 19:33N 51°24' E 002°39'0 0.0
2015-Jan-23 18:33N 51°24' E 002°39'0 0.0
2015-Jan-23 17:33N 51°24' E 002°39'0 0.0
2015-Jan-23 16:33N 51°24' E 002°39'0 0.0
2015-Jan-23 15:33N 51°24' E 002°39'0 0.0
2015-Jan-23 14:33N 51°24' E 002°39'0 0.1
2015-Jan-23 13:33N 51°24' E 002°39'8 8.2
2015-Jan-23 12:34N 51°22' E 002°52'1413.6
2015-Jan-23 11:33N 51°25' E 003°14'1413.9
2015-Jan-23 10:33N 51°26' E 003°35'5 5.1
2015-Jan-23 09:33N 51°28' E 003°43'0 0.0
2015-Jan-23 08:27N 51°28' E 003°43'0 0.0
2015-Jan-23 07:33N 51°28' E 003°43'0 0.0
2015-Jan-23 06:33N 51°28' E 003°43'0 0.0
2015-Jan-23 05:30N 51°28' E 003°43'0 0.0
2015-Jan-23 04:33N 51°28' E 003°43'0 0.0
2015-Jan-23 03:24N 51°28' E 003°43'0 0.0
2015-Jan-23 02:30N 51°28' E 003°43'0 0.0
2015-Jan-23 01:31N 51°28' E 003°43'0 0.0
2015-Jan-23 00:30N 51°28' E 003°43'  
Track history (hours):
 
Tides and Currents Weather Stations Pressure Air Temp Water Temp Dewpoint Dewpoint Depression Visibility Wind Speed Wind Dir Waves Ship Positions

Eships Dana

Last reported at 2015-Feb-01 23:33 UTC. Time now 2015-Feb-02 00:18 UTC.
Position N 53°39' W 000°12'.

Length 116 m; draft 7.1 m.

Type: Tanker. MMSI: 236566000.

Date/timePositionNaut miles runAvg speedWind from/ knotsBaromVisibWave heightAir tempDewpointWater temp
2015-Feb-01 23:33N 53°39' W 000°12'0 0.0
2015-Feb-01 22:33N 53°39' W 000°12'0 0.0
2015-Feb-01 21:33N 53°39' W 000°12'0 0.0
2015-Feb-01 20:33N 53°39' W 000°12'0 0.0
2015-Feb-01 19:33N 53°39' W 000°12'0 0.0
2015-Feb-01 18:33N 53°39' W 000°12'0 0.0
2015-Feb-01 17:33N 53°39' W 000°12'0 0.0
2015-Feb-01 16:30N 53°39' W 000°12'0 0.0
2015-Feb-01 15:33N 53°39' W 000°12'0 0.0
2015-Feb-01 14:33N 53°39' W 000°12'0 0.0
2015-Feb-01 13:33N 53°39' W 000°12'0 0.0
2015-Feb-01 12:33N 53°39' W 000°12'0 0.0
2015-Feb-01 11:33N 53°39' W 000°12'0 0.0
2015-Feb-01 10:33N 53°39' W 000°12'0 0.0
2015-Feb-01 09:33N 53°39' W 000°12'0 0.0
2015-Feb-01 08:30N 53°39' W 000°12'0 0.0
2015-Feb-01 07:28N 53°39' W 000°12'0 0.0
2015-Feb-01 06:33N 53°39' W 000°12'0 0.0
2015-Feb-01 05:33N 53°39' W 000°12'0 0.0
2015-Feb-01 04:33N 53°39' W 000°12'0 0.0
2015-Feb-01 03:33N 53°39' W 000°12'0 0.0
2015-Feb-01 02:30N 53°39' W 000°12'0 0.0
2015-Feb-01 01:33N 53°39' W 000°12'0 0.0
2015-Feb-01 00:33N 53°39' W 000°12'0 0.0
2015-Jan-31 23:33N 53°39' W 000°12'0 0.0
2015-Jan-31 22:33N 53°39' W 000°12'0 0.0
2015-Jan-31 21:33N 53°39' W 000°12'0 0.0
2015-Jan-31 20:33N 53°39' W 000°12'0 0.0
2015-Jan-31 19:33N 53°39' W 000°12'0 0.0
2015-Jan-31 18:33N 53°39' W 000°12'0 0.3
2015-Jan-31 17:33N 53°39' W 000°12'1 1.0
2015-Jan-31 16:33N 53°38' W 000°11'7 7.4
2015-Jan-31 15:33N 53°35' E 000°01'1110.5
2015-Jan-31 14:33N 53°33' E 000°18'5 4.6
2015-Jan-31 13:31N 53°36' E 000°25'0 0.1
2015-Jan-31 12:31N 53°36' E 000°25'0 0.2
2015-Jan-31 11:31N 53°36' E 000°25'0 0.1
2015-Jan-31 10:31N 53°36' E 000°25'0 0.1
2015-Jan-31 09:31N 53°36' E 000°25'0 0.1
2015-Jan-31 08:31N 53°36' E 000°25'1 1.4
2015-Jan-31 07:33N 53°37' E 000°27'1413.0
2015-Jan-31 06:30N 53°35' E 000°50'5012.4
2015-Jan-31 02:29N 53°16' E 002°06'10012.6
2015-Jan-30 18:33N 51°37' E 002°25'1312.6
2015-Jan-30 17:34N 51°27' E 002°13'1312.6
2015-Jan-30 16:33N 51°15' E 002°05'1212.4
2015-Jan-30 15:34N 51°08' E 001°49'1312.6
2015-Jan-30 14:34N 50°60' E 001°34'1312.9
2015-Jan-30 13:33N 50°48' E 001°25'8810.9
2015-Jan-30 05:30N 49°43' W 000°08'1111.2
2015-Jan-30 04:33N 49°32' W 000°05'10 9.8
2015-Jan-30 03:34N 49°28' E 000°08'3 2.2
2015-Jan-30 02:23N 49°29' E 000°12'0 0.0
2015-Jan-30 01:26N 49°29' E 000°12'0 0.0
2015-Jan-30 00:29N 49°29' E 000°12'0 0.0
2015-Jan-29 23:32N 49°29' E 000°12'0 0.0
2015-Jan-29 22:29N 49°29' E 000°12'0 0.0
2015-Jan-29 21:32N 49°29' E 000°12'0 0.0
2015-Jan-29 20:29N 49°29' E 000°12'0 0.0
2015-Jan-29 19:29N 49°29' E 000°12'0 0.0
2015-Jan-29 18:29N 49°29' E 000°12'0 0.0
2015-Jan-29 17:29N 49°29' E 000°12'0 0.0
2015-Jan-29 16:29N 49°29' E 000°12'0 0.0
2015-Jan-29 15:32N 49°29' E 000°12'0 0.0
2015-Jan-29 14:32N 49°29' E 000°12'0 0.0
2015-Jan-29 13:29N 49°29' E 000°12'0 0.0
2015-Jan-29 12:29N 49°29' E 000°12'0 0.0
2015-Jan-29 11:29N 49°29' E 000°12'0 0.0
2015-Jan-29 10:29N 49°29' E 000°12'0 0.0
2015-Jan-29 09:26N 49°29' E 000°12'0 0.0
2015-Jan-29 08:29N 49°29' E 000°12'0 0.0
2015-Jan-29 07:32N 49°29' E 000°12'0 0.4
2015-Jan-29 06:34N 49°29' E 000°12'2 1.9
2015-Jan-29 05:34N 49°28' E 000°09'9 8.6
2015-Jan-29 04:34N 49°30' W 000°04'3 3.5
2015-Jan-29 03:33N 49°33' W 000°07'0 0.0
2015-Jan-29 02:33N 49°33' W 000°07'0 0.0
2015-Jan-29 01:33N 49°33' W 000°07'0 0.0
2015-Jan-29 00:33N 49°33' W 000°07'0 0.0
2015-Jan-28 23:33N 49°33' W 000°07'0 0.0
2015-Jan-28 22:33N 49°33' W 000°07'0 0.0
2015-Jan-28 21:33N 49°33' W 000°07'0 0.0
2015-Jan-28 20:33N 49°33' W 000°07'0 0.0
2015-Jan-28 19:33N 49°33' W 000°07'0 0.0
2015-Jan-28 18:33N 49°33' W 000°07'0 0.0
2015-Jan-28 17:33N 49°33' W 000°07'0 0.0
2015-Jan-28 16:33N 49°33' W 000°07'1 1.4
2015-Jan-28 15:33N 49°35' W 000°07'1211.9
2015-Jan-28 14:33N 49°46' W 000°11'46 8.9
2015-Jan-28 09:24N 50°31' E 000°07'1012.3
2015-Jan-28 08:33N 50°35' E 000°23'1212.5
2015-Jan-28 07:33N 50°41' E 000°40'1212.4
2015-Jan-28 06:33N 50°48' E 000°56'1312.1
2015-Jan-28 05:28N 50°56' E 001°12'1011.4
2015-Jan-28 04:33N 51°03' E 001°25'1312.9
2015-Jan-28 03:34N 51°11' E 001°40'1514.6
2015-Jan-28 02:33N 51°22' E 001°55'1212.4
2015-Jan-28 01:34N 51°21' E 002°15'1514.1
2015-Jan-28 00:31N 51°22' E 002°39'1313.1
2015-Jan-27 23:33N 51°23' E 002°59'1414.4
2015-Jan-27 22:33N 51°25' E 003°22'1313.4
2015-Jan-27 21:33N 51°28' E 003°42'0 0.4
2015-Jan-27 20:30N 51°28' E 003°43'0 0.0
2015-Jan-27 19:30N 51°28' E 003°43'0 0.0
2015-Jan-27 18:33N 51°28' E 003°43'0 0.0
2015-Jan-27 17:30N 51°28' E 003°43'0 0.0
2015-Jan-27 16:30N 51°28' E 003°43'0 0.0
2015-Jan-27 15:30N 51°28' E 003°43'0 0.0
2015-Jan-27 14:30N 51°28' E 003°43'0 0.0
2015-Jan-27 13:24N 51°28' E 003°43'0 0.0
2015-Jan-27 12:30N 51°28' E 003°43'0 0.0
2015-Jan-27 11:30N 51°28' E 003°43'0 0.0
2015-Jan-27 10:30N 51°28' E 003°43'0 0.0
2015-Jan-27 09:24N 51°28' E 003°43'0 0.0
2015-Jan-27 08:30N 51°28' E 003°43'0 0.0
2015-Jan-27 07:33N 51°28' E 003°43'0 0.0
2015-Jan-27 06:30N 51°28' E 003°43'0 0.0
2015-Jan-27 05:33N 51°28' E 003°43'0 0.0
2015-Jan-27 04:33N 51°28' E 003°43'0 0.0
2015-Jan-27 03:33N 51°28' E 003°43'0 0.0
2015-Jan-27 02:30N 51°28' E 003°43'0 0.0
2015-Jan-27 01:30N 51°28' E 003°43'0 0.0
2015-Jan-27 00:30N 51°28' E 003°43'0 0.0
2015-Jan-26 23:33N 51°28' E 003°43'0 0.0
2015-Jan-26 22:30N 51°28' E 003°43'0 0.0
2015-Jan-26 21:33N 51°28' E 003°43'0 0.0
2015-Jan-26 20:33N 51°28' E 003°43'1 1.4
2015-Jan-26 19:34N 51°27' E 003°41'1211.9
2015-Jan-26 18:33N 51°24' E 003°22'1413.8
2015-Jan-26 17:33N 51°25' E 003°00'1212.3
2015-Jan-26 16:33N 51°21' E 002°41'4 3.8
2015-Jan-26 15:31N 51°20' E 002°35'0 0.1
2015-Jan-26 14:31N 51°20' E 002°35'0 0.1
2015-Jan-26 13:28N 51°20' E 002°35'0 0.0
2015-Jan-26 12:25N 51°20' E 002°35'0 0.1
2015-Jan-26 11:28N 51°20' E 002°35'0 0.2
2015-Jan-26 10:28N 51°20' E 002°35'0 0.0
2015-Jan-26 09:31N 51°20' E 002°35'0 0.0
2015-Jan-26 08:31N 51°20' E 002°35'0 0.0
2015-Jan-26 07:16N 51°20' E 002°35'0 0.0
2015-Jan-26 06:28N 51°20' E 002°35'0 0.0
2015-Jan-26 05:31N 51°20' E 002°35'0 0.0
2015-Jan-26 04:31N 51°20' E 002°35'0 0.0
2015-Jan-26 03:31N 51°20' E 002°35'0 0.0
2015-Jan-26 02:31N 51°20' E 002°35'0 0.2
2015-Jan-26 01:33N 51°20' E 002°35'9 9.6
2015-Jan-26 00:33N 51°22' E 002°50'1514.5
2015-Jan-25 23:32N 51°25' E 003°14'1414.0
2015-Jan-25 22:33N 51°26' E 003°35'1212.0
2015-Jan-25 21:33N 51°21' E 003°53'1010.2
2015-Jan-25 20:33N 51°23' E 004°09'9 8.7
2015-Jan-25 19:33N 51°17' E 004°19'2 2.4
2015-Jan-25 18:33N 51°16' E 004°16'0 0.4
2015-Jan-25 17:31N 51°16' E 004°15'0 0.0
2015-Jan-25 16:31N 51°16' E 004°15'0 0.0
2015-Jan-25 15:31N 51°16' E 004°15'0 0.0
2015-Jan-25 14:31N 51°16' E 004°15'0 0.0
2015-Jan-25 13:31N 51°16' E 004°15'0 0.0
2015-Jan-25 12:31N 51°16' E 004°15'0 0.0
2015-Jan-25 11:31N 51°16' E 004°15'0 0.0
2015-Jan-25 10:31N 51°16' E 004°15'0 0.0
2015-Jan-25 09:31N 51°16' E 004°15'0 0.0
2015-Jan-25 08:31N 51°16' E 004°15'0 0.0
2015-Jan-25 07:31N 51°16' E 004°15'0 0.0
2015-Jan-25 06:31N 51°16' E 004°15'0 0.0
2015-Jan-25 05:31N 51°16' E 004°15'0 0.0
2015-Jan-25 04:31N 51°16' E 004°15'0 0.0
2015-Jan-25 03:31N 51°16' E 004°15'0 0.0
2015-Jan-25 02:28N 51°16' E 004°15'0 0.0
2015-Jan-25 01:31N 51°16' E 004°15'0 0.0
2015-Jan-25 00:31N 51°16' E 004°15'0 0.0
2015-Jan-24 23:31N 51°16' E 004°15'0 0.0
2015-Jan-24 22:31N 51°16' E 004°15'0 0.0
2015-Jan-24 21:31N 51°16' E 004°15'1 1.0
2015-Jan-24 20:34N 51°16' E 004°17'0 0.1
2015-Jan-24 19:33N 51°16' E 004°17'5 5.5
2015-Jan-24 18:34N 51°21' E 004°15'9 8.7
2015-Jan-24 17:33N 51°25' E 004°02'1010.2
2015-Jan-24 16:33N 51°21' E 003°47'9 8.7
2015-Jan-24 15:33N 51°25' E 003°34'8 8.5
2015-Jan-24 14:33N 51°24' E 003°20'9 8.6
2015-Jan-24 13:33N 51°24' E 003°07'8 8.5
2015-Jan-24 12:33N 51°22' E 002°54'8 8.4
2015-Jan-24 11:33N 51°23' E 002°40'1 1.4
2015-Jan-24 10:33N 51°24' E 002°39'0 0.0
2015-Jan-24 09:30N 51°24' E 002°39'0 0.1
2015-Jan-24 08:33N 51°24' E 002°39'0 0.1
2015-Jan-24 07:30N 51°24' E 002°39'0 0.0
2015-Jan-24 06:33N 51°24' E 002°39'0 0.1
2015-Jan-24 05:33N 51°24' E 002°39'0 0.1
2015-Jan-24 04:33N 51°24' E 002°39'0 0.0
2015-Jan-24 03:33N 51°24' E 002°39'0 0.0
2015-Jan-24 02:30N 51°24' E 002°39'0 0.0
2015-Jan-24 01:30N 51°24' E 002°39'0 0.0
2015-Jan-24 00:33N 51°24' E 002°39'0 0.1
2015-Jan-23 23:22N 51°24' E 002°39'0 0.1
2015-Jan-23 22:33N 51°24' E 002°39'0 0.0
2015-Jan-23 21:33N 51°24' E 002°39'0 0.1
2015-Jan-23 20:33N 51°24' E 002°39'0 0.0
2015-Jan-23 19:33N 51°24' E 002°39'0 0.0
2015-Jan-23 18:33N 51°24' E 002°39'0 0.0
2015-Jan-23 17:33N 51°24' E 002°39'0 0.0
2015-Jan-23 16:33N 51°24' E 002°39'0 0.0
2015-Jan-23 15:33N 51°24' E 002°39'0 0.0
2015-Jan-23 14:33N 51°24' E 002°39'0 0.1
2015-Jan-23 13:33N 51°24' E 002°39'8 8.2
2015-Jan-23 12:34N 51°22' E 002°52'1413.6
2015-Jan-23 11:33N 51°25' E 003°14'1413.9
2015-Jan-23 10:33N 51°26' E 003°35'5 5.1
2015-Jan-23 09:33N 51°28' E 003°43'0 0.0
2015-Jan-23 08:27N 51°28' E 003°43'0 0.0
2015-Jan-23 07:33N 51°28' E 003°43'0 0.0
2015-Jan-23 06:33N 51°28' E 003°43'0 0.0
2015-Jan-23 05:30N 51°28' E 003°43'0 0.0
2015-Jan-23 04:33N 51°28' E 003°43'0 0.0
2015-Jan-23 03:24N 51°28' E 003°43'0 0.0
2015-Jan-23 02:30N 51°28' E 003°43'0 0.0
2015-Jan-23 01:31N 51°28' E 003°43'0 0.0
2015-Jan-23 00:30N 51°28' E 003°43'  

Dump ship's entire track history